sensor_id;sensor_type;location;lat;lon;timestamp;P1;durP1;ratioP1;P2;durP2;ratioP2
36923;SDS011;22841;50.252;18.688;2022-11-14T00:00:39;109.55;;;30.88;;
36923;SDS011;22841;50.252;18.688;2022-11-14T00:03:07;104.60;;;33.92;;
36923;SDS011;22841;50.252;18.688;2022-11-14T00:05:37;119.75;;;32.67;;
36923;SDS011;22841;50.252;18.688;2022-11-14T00:10:31;165.00;;;35.83;;
36923;SDS011;22841;50.252;18.688;2022-11-14T00:12:58;111.97;;;33.58;;
36923;SDS011;22841;50.252;18.688;2022-11-14T00:15:25;127.20;;;32.92;;
36923;SDS011;22841;50.252;18.688;2022-11-14T00:17:51;254.27;;;36.88;;
36923;SDS011;22841;50.252;18.688;2022-11-14T00:20:17;93.68;;;31.30;;
36923;SDS011;22841;50.252;18.688;2022-11-14T00:22:43;146.65;;;32.75;;
36923;SDS011;22841;50.252;18.688;2022-11-14T00:25:09;89.78;;;31.40;;
36923;SDS011;22841;50.252;18.688;2022-11-14T00:27:36;111.80;;;29.83;;
36923;SDS011;22841;50.252;18.688;2022-11-14T00:30:02;130.57;;;28.83;;
36923;SDS011;22841;50.252;18.688;2022-11-14T00:32:32;99.90;;;29.27;;
36923;SDS011;22841;50.252;18.688;2022-11-14T00:34:58;122.40;;;32.20;;
36923;SDS011;22841;50.252;18.688;2022-11-14T00:37:24;99.68;;;29.95;;
36923;SDS011;22841;50.252;18.688;2022-11-14T00:39:51;71.97;;;28.52;;
36923;SDS011;22841;50.252;18.688;2022-11-14T00:42:17;80.70;;;30.00;;
36923;SDS011;22841;50.252;18.688;2022-11-14T00:44:43;86.68;;;30.00;;
36923;SDS011;22841;50.252;18.688;2022-11-14T00:47:09;99.00;;;31.17;;
36923;SDS011;22841;50.252;18.688;2022-11-14T00:49:35;144.13;;;31.60;;
36923;SDS011;22841;50.252;18.688;2022-11-14T00:52:01;81.38;;;30.48;;
36923;SDS011;22841;50.252;18.688;2022-11-14T00:54:28;106.38;;;28.42;;
36923;SDS011;22841;50.252;18.688;2022-11-14T00:56:54;99.05;;;32.13;;
36923;SDS011;22841;50.252;18.688;2022-11-14T00:59:21;129.13;;;32.75;;
36923;SDS011;22841;50.252;18.688;2022-11-14T01:01:47;85.82;;;30.70;;
36923;SDS011;22841;50.252;18.688;2022-11-14T01:04:13;128.50;;;30.63;;
36923;SDS011;22841;50.252;18.688;2022-11-14T01:06:39;97.32;;;28.63;;
36923;SDS011;22841;50.252;18.688;2022-11-14T01:09:05;115.50;;;31.52;;
36923;SDS011;22841;50.252;18.688;2022-11-14T01:11:31;72.00;;;30.23;;
36923;SDS011;22841;50.252;18.688;2022-11-14T01:13:58;100.05;;;31.92;;
36923;SDS011;22841;50.252;18.688;2022-11-14T01:16:24;94.95;;;29.13;;
36923;SDS011;22841;50.252;18.688;2022-11-14T01:18:50;73.25;;;30.92;;
36923;SDS011;22841;50.252;18.688;2022-11-14T01:21:16;112.55;;;32.67;;
36923;SDS011;22841;50.252;18.688;2022-11-14T01:23:42;85.18;;;30.38;;
36923;SDS011;22841;50.252;18.688;2022-11-14T01:26:09;140.15;;;29.80;;
36923;SDS011;22841;50.252;18.688;2022-11-14T01:28:37;92.25;;;32.40;;
36923;SDS011;22841;50.252;18.688;2022-11-14T01:31:14;98.82;;;33.63;;
36923;SDS011;22841;50.252;18.688;2022-11-14T01:33:42;150.88;;;34.40;;
36923;SDS011;22841;50.252;18.688;2022-11-14T01:36:09;141.38;;;32.13;;
36923;SDS011;22841;50.252;18.688;2022-11-14T01:38:36;116.85;;;31.15;;
36923;SDS011;22841;50.252;18.688;2022-11-14T01:41:03;119.78;;;34.42;;
36923;SDS011;22841;50.252;18.688;2022-11-14T01:43:33;133.63;;;35.10;;
36923;SDS011;22841;50.252;18.688;2022-11-14T01:48:38;174.60;;;33.83;;
36923;SDS011;22841;50.252;18.688;2022-11-14T01:53:55;207.65;;;36.30;;
36923;SDS011;22841;50.252;18.688;2022-11-14T01:56:25;165.55;;;34.55;;
36923;SDS011;22841;50.252;18.688;2022-11-14T01:59:02;109.75;;;32.28;;
36923;SDS011;22841;50.252;18.688;2022-11-14T02:01:33;150.02;;;32.60;;
36923;SDS011;22841;50.252;18.688;2022-11-14T02:04:01;95.05;;;30.88;;
36923;SDS011;22841;50.252;18.688;2022-11-14T02:06:30;94.80;;;30.08;;
36923;SDS011;22841;50.252;18.688;2022-11-14T02:08:57;134.88;;;28.15;;
36923;SDS011;22841;50.252;18.688;2022-11-14T02:11:27;126.43;;;29.02;;
36923;SDS011;22841;50.252;18.688;2022-11-14T02:13:56;123.55;;;29.90;;
36923;SDS011;22841;50.252;18.688;2022-11-14T02:16:24;112.20;;;32.85;;
36923;SDS011;22841;50.252;18.688;2022-11-14T02:18:51;97.72;;;30.27;;
36923;SDS011;22841;50.252;18.688;2022-11-14T02:21:18;164.38;;;31.58;;
36923;SDS011;22841;50.252;18.688;2022-11-14T02:23:44;124.82;;;31.55;;
36923;SDS011;22841;50.252;18.688;2022-11-14T02:26:11;110.47;;;31.92;;
36923;SDS011;22841;50.252;18.688;2022-11-14T02:28:38;151.25;;;33.20;;
36923;SDS011;22841;50.252;18.688;2022-11-14T02:31:04;219.32;;;33.40;;
36923;SDS011;22841;50.252;18.688;2022-11-14T02:33:31;133.98;;;30.55;;
36923;SDS011;22841;50.252;18.688;2022-11-14T02:35:57;111.43;;;32.17;;
36923;SDS011;22841;50.252;18.688;2022-11-14T02:41:44;92.20;;;32.17;;
36923;SDS011;22841;50.252;18.688;2022-11-14T02:44:11;122.38;;;32.10;;
36923;SDS011;22841;50.252;18.688;2022-11-14T02:46:37;181.70;;;36.20;;
36923;SDS011;22841;50.252;18.688;2022-11-14T02:49:03;106.88;;;32.33;;
36923;SDS011;22841;50.252;18.688;2022-11-14T02:51:29;136.63;;;35.65;;
36923;SDS011;22841;50.252;18.688;2022-11-14T02:53:55;82.38;;;31.38;;
36923;SDS011;22841;50.252;18.688;2022-11-14T02:56:21;145.60;;;34.35;;
36923;SDS011;22841;50.252;18.688;2022-11-14T02:58:47;100.80;;;30.98;;
36923;SDS011;22841;50.252;18.688;2022-11-14T03:01:13;106.13;;;31.00;;
36923;SDS011;22841;50.252;18.688;2022-11-14T03:03:39;123.80;;;32.08;;
36923;SDS011;22841;50.252;18.688;2022-11-14T03:06:05;95.35;;;33.22;;
36923;SDS011;22841;50.252;18.688;2022-11-14T03:08:32;99.57;;;31.83;;
36923;SDS011;22841;50.252;18.688;2022-11-14T03:11:05;101.90;;;30.77;;
36923;SDS011;22841;50.252;18.688;2022-11-14T03:13:32;128.88;;;30.20;;
36923;SDS011;22841;50.252;18.688;2022-11-14T03:16:08;115.10;;;31.15;;
36923;SDS011;22841;50.252;18.688;2022-11-14T03:18:36;132.95;;;28.88;;
36923;SDS011;22841;50.252;18.688;2022-11-14T03:21:12;141.15;;;33.85;;
36923;SDS011;22841;50.252;18.688;2022-11-14T03:23:40;118.57;;;30.50;;
36923;SDS011;22841;50.252;18.688;2022-11-14T03:26:08;108.95;;;28.77;;
36923;SDS011;22841;50.252;18.688;2022-11-14T03:28:35;138.30;;;28.98;;
36923;SDS011;22841;50.252;18.688;2022-11-14T03:31:03;135.25;;;29.55;;
36923;SDS011;22841;50.252;18.688;2022-11-14T03:33:30;140.32;;;31.65;;
36923;SDS011;22841;50.252;18.688;2022-11-14T03:35:58;121.63;;;28.88;;
36923;SDS011;22841;50.252;18.688;2022-11-14T03:38:25;112.75;;;30.38;;
36923;SDS011;22841;50.252;18.688;2022-11-14T03:40:51;107.03;;;30.70;;
36923;SDS011;22841;50.252;18.688;2022-11-14T03:43:22;106.13;;;31.85;;
36923;SDS011;22841;50.252;18.688;2022-11-14T03:45:48;112.85;;;30.63;;
36923;SDS011;22841;50.252;18.688;2022-11-14T03:48:14;96.97;;;26.30;;
36923;SDS011;22841;50.252;18.688;2022-11-14T03:50:40;104.55;;;25.25;;
36923;SDS011;22841;50.252;18.688;2022-11-14T03:53:08;87.82;;;25.48;;
36923;SDS011;22841;50.252;18.688;2022-11-14T03:55:44;78.80;;;25.48;;
36923;SDS011;22841;50.252;18.688;2022-11-14T03:58:10;87.40;;;26.42;;
36923;SDS011;22841;50.252;18.688;2022-11-14T04:00:37;115.55;;;25.58;;
36923;SDS011;22841;50.252;18.688;2022-11-14T04:03:03;96.07;;;27.05;;
36923;SDS011;22841;50.252;18.688;2022-11-14T04:05:29;122.40;;;25.70;;
36923;SDS011;22841;50.252;18.688;2022-11-14T04:07:56;99.35;;;24.23;;
36923;SDS011;22841;50.252;18.688;2022-11-14T04:10:22;89.55;;;25.55;;
36923;SDS011;22841;50.252;18.688;2022-11-14T04:12:49;81.80;;;25.67;;
36923;SDS011;22841;50.252;18.688;2022-11-14T04:15:16;95.90;;;26.35;;
36923;SDS011;22841;50.252;18.688;2022-11-14T04:17:43;99.55;;;24.58;;
36923;SDS011;22841;50.252;18.688;2022-11-14T04:20:10;96.60;;;25.00;;
36923;SDS011;22841;50.252;18.688;2022-11-14T04:22:37;71.22;;;22.77;;
36923;SDS011;22841;50.252;18.688;2022-11-14T04:25:04;80.85;;;23.73;;
36923;SDS011;22841;50.252;18.688;2022-11-14T04:27:31;103.03;;;23.75;;
36923;SDS011;22841;50.252;18.688;2022-11-14T04:29:57;112.93;;;25.63;;
36923;SDS011;22841;50.252;18.688;2022-11-14T04:32:23;69.70;;;26.33;;
36923;SDS011;22841;50.252;18.688;2022-11-14T04:34:50;84.75;;;25.15;;
36923;SDS011;22841;50.252;18.688;2022-11-14T04:37:16;93.70;;;25.02;;
36923;SDS011;22841;50.252;18.688;2022-11-14T04:39:42;93.75;;;25.75;;
36923;SDS011;22841;50.252;18.688;2022-11-14T04:42:08;81.57;;;24.25;;
36923;SDS011;22841;50.252;18.688;2022-11-14T04:44:34;77.95;;;23.83;;
36923;SDS011;22841;50.252;18.688;2022-11-14T04:47:00;79.18;;;24.42;;
36923;SDS011;22841;50.252;18.688;2022-11-14T04:49:26;77.45;;;24.75;;
36923;SDS011;22841;50.252;18.688;2022-11-14T04:51:52;75.97;;;26.85;;
36923;SDS011;22841;50.252;18.688;2022-11-14T04:54:18;87.40;;;26.00;;
36923;SDS011;22841;50.252;18.688;2022-11-14T04:56:44;84.22;;;26.00;;
36923;SDS011;22841;50.252;18.688;2022-11-14T04:59:11;85.47;;;24.75;;
36923;SDS011;22841;50.252;18.688;2022-11-14T05:01:37;90.22;;;23.67;;
36923;SDS011;22841;50.252;18.688;2022-11-14T05:04:03;93.45;;;24.23;;
36923;SDS011;22841;50.252;18.688;2022-11-14T05:06:29;93.68;;;24.58;;
36923;SDS011;22841;50.252;18.688;2022-11-14T05:08:55;81.07;;;24.70;;
36923;SDS011;22841;50.252;18.688;2022-11-14T05:11:22;91.53;;;26.08;;
36923;SDS011;22841;50.252;18.688;2022-11-14T05:13:48;86.68;;;24.25;;
36923;SDS011;22841;50.252;18.688;2022-11-14T05:16:14;71.53;;;25.65;;
36923;SDS011;22841;50.252;18.688;2022-11-14T05:18:40;102.03;;;26.20;;
36923;SDS011;22841;50.252;18.688;2022-11-14T05:21:09;67.90;;;23.65;;
36923;SDS011;22841;50.252;18.688;2022-11-14T05:23:38;98.22;;;24.40;;
36923;SDS011;22841;50.252;18.688;2022-11-14T05:26:05;69.70;;;22.75;;
36923;SDS011;22841;50.252;18.688;2022-11-14T05:28:35;57.75;;;23.45;;
36923;SDS011;22841;50.252;18.688;2022-11-14T05:33:33;79.05;;;22.75;;
36923;SDS011;22841;50.252;18.688;2022-11-14T05:36:03;82.50;;;23.58;;
36923;SDS011;22841;50.252;18.688;2022-11-14T05:38:31;73.32;;;23.13;;
36923;SDS011;22841;50.252;18.688;2022-11-14T05:41:04;60.65;;;20.48;;
36923;SDS011;22841;50.252;18.688;2022-11-14T05:43:31;72.90;;;21.85;;
36923;SDS011;22841;50.252;18.688;2022-11-14T05:46:00;62.47;;;23.20;;
36923;SDS011;22841;50.252;18.688;2022-11-14T05:48:27;54.72;;;22.08;;
36923;SDS011;22841;50.252;18.688;2022-11-14T05:50:56;72.47;;;21.77;;
36923;SDS011;22841;50.252;18.688;2022-11-14T05:53:23;66.45;;;20.92;;
36923;SDS011;22841;50.252;18.688;2022-11-14T06:02:35;62.97;;;20.10;;
36923;SDS011;22841;50.252;18.688;2022-11-14T06:08:10;62.85;;;21.00;;
36923;SDS011;22841;50.252;18.688;2022-11-14T06:10:39;66.25;;;20.65;;
36923;SDS011;22841;50.252;18.688;2022-11-14T06:13:05;53.53;;;20.40;;
36923;SDS011;22841;50.252;18.688;2022-11-14T06:15:31;61.90;;;22.48;;
36923;SDS011;22841;50.252;18.688;2022-11-14T06:17:57;84.28;;;21.83;;
36923;SDS011;22841;50.252;18.688;2022-11-14T06:20:23;60.83;;;20.70;;
36923;SDS011;22841;50.252;18.688;2022-11-14T06:22:52;66.57;;;19.98;;
36923;SDS011;22841;50.252;18.688;2022-11-14T06:25:19;67.15;;;20.95;;
36923;SDS011;22841;50.252;18.688;2022-11-14T06:39:24;41.90;;;18.90;;
36923;SDS011;22841;50.252;18.688;2022-11-14T06:44:40;53.33;;;17.42;;
36923;SDS011;22841;50.252;18.688;2022-11-14T06:47:06;44.75;;;19.17;;
36923;SDS011;22841;50.252;18.688;2022-11-14T06:55:42;63.67;;;20.23;;
36923;SDS011;22841;50.252;18.688;2022-11-14T06:58:16;62.55;;;18.50;;
36923;SDS011;22841;50.252;18.688;2022-11-14T07:00:42;47.60;;;18.63;;
36923;SDS011;22841;50.252;18.688;2022-11-14T07:03:08;45.17;;;18.10;;
36923;SDS011;22841;50.252;18.688;2022-11-14T07:05:34;54.85;;;20.10;;
36923;SDS011;22841;50.252;18.688;2022-11-14T07:08:00;47.67;;;21.35;;
36923;SDS011;22841;50.252;18.688;2022-11-14T07:10:27;53.35;;;19.67;;
36923;SDS011;22841;50.252;18.688;2022-11-14T07:12:53;62.15;;;21.00;;
36923;SDS011;22841;50.252;18.688;2022-11-14T07:15:19;68.90;;;21.67;;
36923;SDS011;22841;50.252;18.688;2022-11-14T07:24:14;69.13;;;24.33;;
36923;SDS011;22841;50.252;18.688;2022-11-14T07:30:04;75.57;;;22.08;;
36923;SDS011;22841;50.252;18.688;2022-11-14T07:35:55;112.25;;;21.88;;
36923;SDS011;22841;50.252;18.688;2022-11-14T07:59:45;66.60;;;22.75;;
36923;SDS011;22841;50.252;18.688;2022-11-14T08:09:01;62.03;;;22.23;;
36923;SDS011;22841;50.252;18.688;2022-11-14T08:11:27;70.47;;;21.80;;
36923;SDS011;22841;50.252;18.688;2022-11-14T08:14:12;75.50;;;21.65;;
36923;SDS011;22841;50.252;18.688;2022-11-14T08:16:38;88.90;;;21.17;;
36923;SDS011;22841;50.252;18.688;2022-11-14T08:19:04;54.35;;;21.92;;
36923;SDS011;22841;50.252;18.688;2022-11-14T08:21:31;67.50;;;22.48;;
36923;SDS011;22841;50.252;18.688;2022-11-14T08:23:57;63.53;;;23.75;;
36923;SDS011;22841;50.252;18.688;2022-11-14T08:26:23;51.90;;;23.88;;
36923;SDS011;22841;50.252;18.688;2022-11-14T08:28:52;75.28;;;26.75;;
36923;SDS011;22841;50.252;18.688;2022-11-14T08:31:19;58.22;;;23.55;;
36923;SDS011;22841;50.252;18.688;2022-11-14T08:33:46;81.85;;;26.52;;
36923;SDS011;22841;50.252;18.688;2022-11-14T08:36:14;52.10;;;22.83;;
36923;SDS011;22841;50.252;18.688;2022-11-14T08:38:40;57.95;;;21.45;;
36923;SDS011;22841;50.252;18.688;2022-11-14T09:17:11;68.18;;;27.08;;
36923;SDS011;22841;50.252;18.688;2022-11-14T09:19:37;87.78;;;30.45;;
36923;SDS011;22841;50.252;18.688;2022-11-14T09:22:04;83.75;;;30.58;;
36923;SDS011;22841;50.252;18.688;2022-11-14T09:24:30;82.35;;;30.95;;
36923;SDS011;22841;50.252;18.688;2022-11-14T09:26:56;82.15;;;31.85;;
36923;SDS011;22841;50.252;18.688;2022-11-14T09:35:36;89.05;;;32.70;;
36923;SDS011;22841;50.252;18.688;2022-11-14T09:38:06;71.65;;;29.67;;
36923;SDS011;22841;50.252;18.688;2022-11-14T09:40:42;72.38;;;30.52;;
36923;SDS011;22841;50.252;18.688;2022-11-14T09:46:39;74.13;;;30.13;;
36923;SDS011;22841;50.252;18.688;2022-11-14T09:52:56;67.80;;;30.20;;
36923;SDS011;22841;50.252;18.688;2022-11-14T09:55:27;81.85;;;32.78;;
36923;SDS011;22841;50.252;18.688;2022-11-14T09:57:55;79.10;;;30.90;;
36923;SDS011;22841;50.252;18.688;2022-11-14T10:00:22;76.45;;;33.15;;
36923;SDS011;22841;50.252;18.688;2022-11-14T10:02:59;67.63;;;32.97;;
36923;SDS011;22841;50.252;18.688;2022-11-14T10:20:12;81.20;;;32.20;;
36923;SDS011;22841;50.252;18.688;2022-11-14T10:23:08;92.60;;;36.40;;
36923;SDS011;22841;50.252;18.688;2022-11-14T10:31:20;96.90;;;39.70;;
36923;SDS011;22841;50.252;18.688;2022-11-14T10:40:46;86.93;;;38.10;;
36923;SDS011;22841;50.252;18.688;2022-11-14T10:43:23;75.18;;;34.70;;
36923;SDS011;22841;50.252;18.688;2022-11-14T10:45:56;70.20;;;33.63;;
36923;SDS011;22841;50.252;18.688;2022-11-14T10:48:30;91.25;;;36.88;;
36923;SDS011;22841;50.252;18.688;2022-11-14T10:56:09;78.38;;;37.83;;
36923;SDS011;22841;50.252;18.688;2022-11-14T11:02:07;78.63;;;36.78;;
36923;SDS011;22841;50.252;18.688;2022-11-14T11:07:58;84.57;;;35.00;;
36923;SDS011;22841;50.252;18.688;2022-11-14T11:14:08;69.10;;;31.98;;
36923;SDS011;22841;50.252;18.688;2022-11-14T11:56:05;73.30;;;33.28;;
36923;SDS011;22841;50.252;18.688;2022-11-14T11:58:43;73.10;;;35.88;;
36923;SDS011;22841;50.252;18.688;2022-11-14T12:01:12;88.97;;;38.85;;
36923;SDS011;22841;50.252;18.688;2022-11-14T12:03:45;80.70;;;35.47;;
36923;SDS011;22841;50.252;18.688;2022-11-14T12:06:17;83.60;;;37.70;;
36923;SDS011;22841;50.252;18.688;2022-11-14T12:09:00;85.70;;;39.80;;
36923;SDS011;22841;50.252;18.688;2022-11-14T12:11:48;74.38;;;36.33;;
36923;SDS011;22841;50.252;18.688;2022-11-14T12:17:03;75.72;;;35.20;;
36923;SDS011;22841;50.252;18.688;2022-11-14T12:22:25;73.07;;;33.85;;
36923;SDS011;22841;50.252;18.688;2022-11-14T12:25:25;91.05;;;37.33;;
36923;SDS011;22841;50.252;18.688;2022-11-14T12:28:17;74.43;;;36.10;;
36923;SDS011;22841;50.252;18.688;2022-11-14T12:30:50;72.00;;;35.92;;
36923;SDS011;22841;50.252;18.688;2022-11-14T12:33:23;78.70;;;37.25;;
36923;SDS011;22841;50.252;18.688;2022-11-14T12:35:59;83.03;;;39.17;;
36923;SDS011;22841;50.252;18.688;2022-11-14T12:38:29;69.85;;;33.75;;
36923;SDS011;22841;50.252;18.688;2022-11-14T12:41:00;77.20;;;35.28;;
36923;SDS011;22841;50.252;18.688;2022-11-14T12:43:29;69.30;;;35.17;;
36923;SDS011;22841;50.252;18.688;2022-11-14T12:46:04;79.25;;;39.10;;
36923;SDS011;22841;50.252;18.688;2022-11-14T12:48:37;73.07;;;36.30;;
36923;SDS011;22841;50.252;18.688;2022-11-14T12:51:47;78.60;;;36.42;;
36923;SDS011;22841;50.252;18.688;2022-11-14T12:53:54;77.25;;;36.80;;
36923;SDS011;22841;50.252;18.688;2022-11-14T13:04:15;77.07;;;36.83;;
36923;SDS011;22841;50.252;18.688;2022-11-14T13:12:25;76.70;;;39.47;;
36923;SDS011;22841;50.252;18.688;2022-11-14T13:18:03;69.85;;;35.88;;
36923;SDS011;22841;50.252;18.688;2022-11-14T13:21:01;79.13;;;38.17;;
36923;SDS011;22841;50.252;18.688;2022-11-14T13:28:43;77.78;;;37.80;;
36923;SDS011;22841;50.252;18.688;2022-11-14T13:33:54;86.88;;;40.28;;
36923;SDS011;22841;50.252;18.688;2022-11-14T13:36:30;87.10;;;42.97;;
36923;SDS011;22841;50.252;18.688;2022-11-14T13:39:25;84.32;;;41.28;;
36923;SDS011;22841;50.252;18.688;2022-11-14T13:51:08;94.85;;;44.20;;
36923;SDS011;22841;50.252;18.688;2022-11-14T13:53:37;96.88;;;45.80;;
36923;SDS011;22841;50.252;18.688;2022-11-14T14:07:17;88.80;;;41.67;;
36923;SDS011;22841;50.252;18.688;2022-11-14T14:10:06;94.97;;;40.90;;
36923;SDS011;22841;50.252;18.688;2022-11-14T14:15:44;89.22;;;43.60;;
36923;SDS011;22841;50.252;18.688;2022-11-14T14:29:24;109.88;;;48.38;;
36923;SDS011;22841;50.252;18.688;2022-11-14T14:32:12;114.25;;;49.58;;
36923;SDS011;22841;50.252;18.688;2022-11-14T14:34:40;102.28;;;47.28;;
36923;SDS011;22841;50.252;18.688;2022-11-14T14:37:23;95.43;;;42.40;;
36923;SDS011;22841;50.252;18.688;2022-11-14T14:39:55;92.55;;;44.10;;
36923;SDS011;22841;50.252;18.688;2022-11-14T14:42:21;96.40;;;42.83;;
36923;SDS011;22841;50.252;18.688;2022-11-14T14:44:48;103.80;;;47.40;;
36923;SDS011;22841;50.252;18.688;2022-11-14T14:47:35;102.43;;;45.78;;
36923;SDS011;22841;50.252;18.688;2022-11-14T14:50:27;104.22;;;49.80;;
36923;SDS011;22841;50.252;18.688;2022-11-14T14:53:05;102.15;;;47.35;;
36923;SDS011;22841;50.252;18.688;2022-11-14T14:55:33;101.32;;;48.35;;
36923;SDS011;22841;50.252;18.688;2022-11-14T14:58:13;93.38;;;42.58;;
36923;SDS011;22841;50.252;18.688;2022-11-14T15:00:50;100.28;;;45.75;;
36923;SDS011;22841;50.252;18.688;2022-11-14T15:03:38;92.97;;;42.28;;
36923;SDS011;22841;50.252;18.688;2022-11-14T15:09:07;93.63;;;46.55;;
36923;SDS011;22841;50.252;18.688;2022-11-14T15:11:55;106.28;;;46.22;;
36923;SDS011;22841;50.252;18.688;2022-11-14T15:14:24;99.65;;;46.95;;
36923;SDS011;22841;50.252;18.688;2022-11-14T15:16:57;95.43;;;45.45;;
36923;SDS011;22841;50.252;18.688;2022-11-14T15:19:46;104.80;;;46.08;;
36923;SDS011;22841;50.252;18.688;2022-11-14T15:24:42;100.47;;;47.85;;
36923;SDS011;22841;50.252;18.688;2022-11-14T15:27:18;107.35;;;46.40;;
36923;SDS011;22841;50.252;18.688;2022-11-14T15:29:46;101.68;;;43.35;;
36923;SDS011;22841;50.252;18.688;2022-11-14T15:32:16;96.22;;;42.95;;
36923;SDS011;22841;50.252;18.688;2022-11-14T15:37:34;100.95;;;44.85;;
36923;SDS011;22841;50.252;18.688;2022-11-14T15:40:14;106.30;;;44.40;;
36923;SDS011;22841;50.252;18.688;2022-11-14T15:42:42;99.65;;;44.05;;
36923;SDS011;22841;50.252;18.688;2022-11-14T15:47:58;108.75;;;41.15;;
36923;SDS011;22841;50.252;18.688;2022-11-14T15:50:31;113.03;;;44.70;;
36923;SDS011;22841;50.252;18.688;2022-11-14T15:55:25;106.80;;;44.20;;
36923;SDS011;22841;50.252;18.688;2022-11-14T15:57:52;108.38;;;45.53;;
36923;SDS011;22841;50.252;18.688;2022-11-14T16:00:18;107.25;;;46.58;;
36923;SDS011;22841;50.252;18.688;2022-11-14T16:02:51;105.65;;;43.15;;
36923;SDS011;22841;50.252;18.688;2022-11-14T16:05:23;115.22;;;45.10;;
36923;SDS011;22841;50.252;18.688;2022-11-14T16:07:52;109.88;;;44.45;;
36923;SDS011;22841;50.252;18.688;2022-11-14T16:10:20;106.82;;;44.97;;
36923;SDS011;22841;50.252;18.688;2022-11-14T16:12:47;132.07;;;44.15;;
36923;SDS011;22841;50.252;18.688;2022-11-14T16:15:14;119.45;;;43.85;;
36923;SDS011;22841;50.252;18.688;2022-11-14T16:17:42;117.88;;;44.13;;
36923;SDS011;22841;50.252;18.688;2022-11-14T16:20:12;101.55;;;42.72;;
36923;SDS011;22841;50.252;18.688;2022-11-14T16:22:41;114.75;;;43.30;;
36923;SDS011;22841;50.252;18.688;2022-11-14T16:27:51;122.47;;;46.60;;
36923;SDS011;22841;50.252;18.688;2022-11-14T16:30:17;120.65;;;46.83;;
36923;SDS011;22841;50.252;18.688;2022-11-14T16:32:46;117.72;;;46.80;;
36923;SDS011;22841;50.252;18.688;2022-11-14T16:35:22;127.43;;;47.17;;
36923;SDS011;22841;50.252;18.688;2022-11-14T16:37:50;130.50;;;45.72;;
36923;SDS011;22841;50.252;18.688;2022-11-14T16:40:22;127.93;;;49.15;;
36923;SDS011;22841;50.252;18.688;2022-11-14T16:42:53;117.00;;;46.85;;
36923;SDS011;22841;50.252;18.688;2022-11-14T16:45:20;130.60;;;47.13;;
36923;SDS011;22841;50.252;18.688;2022-11-14T16:47:47;121.63;;;46.10;;
36923;SDS011;22841;50.252;18.688;2022-11-14T16:50:14;117.28;;;47.33;;
36923;SDS011;22841;50.252;18.688;2022-11-14T16:52:41;130.27;;;46.05;;
36923;SDS011;22841;50.252;18.688;2022-11-14T16:55:07;140.50;;;47.35;;
36923;SDS011;22841;50.252;18.688;2022-11-14T16:57:35;121.68;;;45.13;;
36923;SDS011;22841;50.252;18.688;2022-11-14T17:00:10;106.45;;;45.28;;
36923;SDS011;22841;50.252;18.688;2022-11-14T17:02:40;119.57;;;45.60;;
36923;SDS011;22841;50.252;18.688;2022-11-14T17:05:07;126.10;;;46.90;;
36923;SDS011;22841;50.252;18.688;2022-11-14T17:07:33;113.60;;;46.58;;
36923;SDS011;22841;50.252;18.688;2022-11-14T17:09:59;118.82;;;47.80;;
36923;SDS011;22841;50.252;18.688;2022-11-14T17:12:25;129.35;;;50.65;;
36923;SDS011;22841;50.252;18.688;2022-11-14T17:14:55;131.23;;;49.85;;
36923;SDS011;22841;50.252;18.688;2022-11-14T17:17:21;119.68;;;47.30;;
36923;SDS011;22841;50.252;18.688;2022-11-14T17:19:47;134.18;;;49.55;;
36923;SDS011;22841;50.252;18.688;2022-11-14T17:22:14;109.40;;;43.33;;
36923;SDS011;22841;50.252;18.688;2022-11-14T17:24:41;105.57;;;42.03;;
36923;SDS011;22841;50.252;18.688;2022-11-14T17:27:08;127.00;;;46.55;;
36923;SDS011;22841;50.252;18.688;2022-11-14T17:29:37;124.63;;;45.65;;
36923;SDS011;22841;50.252;18.688;2022-11-14T17:32:03;128.32;;;45.45;;
36923;SDS011;22841;50.252;18.688;2022-11-14T17:34:30;113.15;;;45.42;;
36923;SDS011;22841;50.252;18.688;2022-11-14T17:36:56;118.82;;;44.22;;
36923;SDS011;22841;50.252;18.688;2022-11-14T17:39:22;113.07;;;43.88;;
36923;SDS011;22841;50.252;18.688;2022-11-14T17:41:49;125.88;;;44.45;;
36923;SDS011;22841;50.252;18.688;2022-11-14T17:44:15;109.45;;;42.83;;
36923;SDS011;22841;50.252;18.688;2022-11-14T17:46:41;114.93;;;46.85;;
36923;SDS011;22841;50.252;18.688;2022-11-14T17:49:07;111.63;;;45.45;;
36923;SDS011;22841;50.252;18.688;2022-11-14T17:51:33;144.90;;;47.55;;
36923;SDS011;22841;50.252;18.688;2022-11-14T17:54:01;125.57;;;47.17;;
36923;SDS011;22841;50.252;18.688;2022-11-14T17:56:27;154.90;;;49.42;;
36923;SDS011;22841;50.252;18.688;2022-11-14T17:58:53;151.90;;;46.70;;
36923;SDS011;22841;50.252;18.688;2022-11-14T18:01:20;133.52;;;46.55;;
36923;SDS011;22841;50.252;18.688;2022-11-14T18:03:48;137.15;;;45.17;;
36923;SDS011;22841;50.252;18.688;2022-11-14T18:06:18;129.50;;;48.58;;
36923;SDS011;22841;50.252;18.688;2022-11-14T18:08:45;139.68;;;48.92;;
36923;SDS011;22841;50.252;18.688;2022-11-14T18:11:13;145.18;;;45.20;;
36923;SDS011;22841;50.252;18.688;2022-11-14T18:13:40;138.38;;;45.28;;
36923;SDS011;22841;50.252;18.688;2022-11-14T18:16:07;126.47;;;45.83;;
36923;SDS011;22841;50.252;18.688;2022-11-14T18:18:37;141.23;;;49.08;;
36923;SDS011;22841;50.252;18.688;2022-11-14T18:21:13;132.93;;;43.28;;
36923;SDS011;22841;50.252;18.688;2022-11-14T18:23:42;126.40;;;46.85;;
36923;SDS011;22841;50.252;18.688;2022-11-14T18:26:14;147.10;;;43.40;;
36923;SDS011;22841;50.252;18.688;2022-11-14T18:28:41;117.78;;;44.53;;
36923;SDS011;22841;50.252;18.688;2022-11-14T18:31:08;126.57;;;44.60;;
36923;SDS011;22841;50.252;18.688;2022-11-14T18:33:35;136.07;;;44.15;;
36923;SDS011;22841;50.252;18.688;2022-11-14T18:36:03;122.30;;;43.92;;
36923;SDS011;22841;50.252;18.688;2022-11-14T18:38:32;114.30;;;44.08;;
36923;SDS011;22841;50.252;18.688;2022-11-14T18:40:59;127.70;;;43.28;;
36923;SDS011;22841;50.252;18.688;2022-11-14T18:43:28;112.90;;;42.92;;
36923;SDS011;22841;50.252;18.688;2022-11-14T18:46:03;111.65;;;42.33;;
36923;SDS011;22841;50.252;18.688;2022-11-14T18:48:33;129.75;;;41.63;;
36923;SDS011;22841;50.252;18.688;2022-11-14T18:51:04;158.85;;;45.42;;
36923;SDS011;22841;50.252;18.688;2022-11-14T18:53:32;128.65;;;44.15;;
36923;SDS011;22841;50.252;18.688;2022-11-14T18:56:19;143.13;;;45.13;;
36923;SDS011;22841;50.252;18.688;2022-11-14T18:58:50;180.27;;;47.15;;
36923;SDS011;22841;50.252;18.688;2022-11-14T19:01:21;122.00;;;44.00;;
36923;SDS011;22841;50.252;18.688;2022-11-14T19:03:57;132.07;;;43.53;;
36923;SDS011;22841;50.252;18.688;2022-11-14T19:06:25;120.20;;;44.20;;
36923;SDS011;22841;50.252;18.688;2022-11-14T19:08:55;137.27;;;44.10;;
36923;SDS011;22841;50.252;18.688;2022-11-14T19:11:24;108.78;;;41.55;;
36923;SDS011;22841;50.252;18.688;2022-11-14T19:14:10;120.28;;;41.03;;